Time;durP1;ratioP1;P1;durP2;ratioP2;P2;SDS_P1;SDS_P2;PMS_P1;PMS_P2;Temp;Humidity;BMP_temperature;BMP_pressure;BME280_temperature;BME280_humidity;BME280_pressure;Samples;Min_cycle;Max_cycle;Signal;HPM_P1;HPM_P2
2021/10/13 00:01:02;;;;;;;5.85;4.28;;;;;;;7.06;77.38;99400.28;2618115;54;20026;-65
2021/10/13 00:03:32;;;;;;;3.97;3.65;;;;;;;6.98;77.36;99399.38;2618643;54;20581;-65
2021/10/13 00:06:01;;;;;;;4.38;3.92;;;;;;;6.99;77.66;99393.97;2618563;54;20027;-65
2021/10/13 00:08:31;;;;;;;5.57;4.22;;;;;;;7.00;77.49;99392.19;2619255;54;20041;-65
2021/10/13 00:11:00;;;;;;;4.70;4.05;;;;;;;6.99;77.52;99393.97;2620693;54;20038;-65
2021/10/13 00:13:30;;;;;;;4.68;4.18;;;;;;;6.93;77.58;99394.59;2619965;54;20054;-66
2021/10/13 00:16:04;;;;;;;4.63;3.75;;;;;;;6.93;77.47;99394.59;2619462;54;20077;-65
2021/10/13 00:18:34;;;;;;;4.50;3.90;;;;;;;6.89;77.68;99403.75;2619615;54;20027;-65
2021/10/13 00:21:03;;;;;;;4.28;3.50;;;;;;;6.87;77.57;99401.31;2618865;54;20078;-66
2021/10/13 00:23:33;;;;;;;4.57;4.00;;;;;;;6.87;77.50;99405.72;2620138;54;20590;-66
2021/10/13 00:26:02;;;;;;;3.90;3.50;;;;;;;6.81;77.67;99408.97;2619360;54;20051;-66
2021/10/13 00:28:32;;;;;;;4.97;4.22;;;;;;;6.76;77.38;99416.50;2619361;54;20066;-66
2021/10/13 00:31:04;;;;;;;5.38;4.05;;;;;;;6.59;77.76;99411.09;2619093;54;20086;-65
2021/10/13 00:33:33;;;;;;;5.72;3.83;;;;;;;6.56;77.99;99419.28;2619196;54;20038;-65
2021/10/13 00:36:03;;;;;;;4.03;3.63;;;;;;;6.59;78.00;99429.50;2618517;54;20052;-66
2021/10/13 00:38:32;;;;;;;5.07;4.15;;;;;;;6.61;77.50;99424.94;2621354;54;20077;-66
2021/10/13 00:41:02;;;;;;;4.55;3.63;;;;;;;6.65;77.45;99431.53;2621264;54;20035;-65
2021/10/13 00:43:31;;;;;;;4.53;4.07;;;;;;;6.66;77.43;99434.97;2621278;54;20038;-65
2021/10/13 00:46:04;;;;;;;6.65;4.45;;;;;;;6.64;77.67;99437.75;2620035;39;20446;-65
2021/10/13 00:48:33;;;;;;;4.68;3.78;;;;;;;6.49;77.18;99439.28;2617594;54;20018;-66
2021/10/13 00:51:03;;;;;;;4.82;4.00;;;;;;;6.38;77.17;99431.63;2618863;31;20435;-66
2021/10/13 00:53:33;;;;;;;5.03;4.07;;;;;;;6.27;77.57;99439.72;2618901;54;20155;-66
2021/10/13 00:56:22;;;;;;;5.95;4.50;;;;;;;6.19;77.33;99450.94;2618878;54;20057;-66
2021/10/13 00:58:52;;;;;;;4.40;4.00;;;;;;;6.09;77.95;99448.41;2619028;54;20042;-65
2021/10/13 01:01:29;;;;;;;4.90;3.90;;;;;;;6.07;77.95;99452.97;2618511;47;20057;-65
2021/10/13 01:04:17;;;;;;;11.48;4.70;;;;;;;6.03;77.81;99459.47;2619790;39;20403;-65
2021/10/13 01:06:57;;;;;;;7.40;4.95;;;;;;;5.98;78.00;99466.16;2618262;47;20038;-65
2021/10/13 01:09:29;;;;;;;6.80;4.55;;;;;;;5.94;78.25;99470.84;2619065;54;20050;-65
2021/10/13 01:12:09;;;;;;;4.65;4.25;;;;;;;5.92;78.50;99472.81;2618680;54;20046;-65
2021/10/13 01:14:45;;;;;;;5.45;4.85;;;;;;;5.87;78.17;99462.72;2618219;47;20090;-65
2021/10/13 01:17:27;;;;;;;6.65;5.18;;;;;;;5.84;78.31;99465.66;2618789;54;20110;-66
2021/10/13 01:20:05;;;;;;;6.80;4.82;;;;;;;5.78;78.19;99468.84;2618958;54;20081;-65
2021/10/13 01:23:19;;;;;;;7.30;4.88;;;;;;;5.72;78.42;99472.88;2618664;54;20042;-65
2021/10/13 01:25:52;;;;;;;4.85;4.35;;;;;;;5.67;78.85;99472.50;2618371;54;20067;-65
2021/10/13 01:28:27;;;;;;;8.95;4.60;;;;;;;5.77;78.48;99477.69;2618849;54;20122;-65
2021/10/13 01:31:00;;;;;;;5.68;4.20;;;;;;;5.85;78.23;99474.34;2618789;54;20035;-65
2021/10/13 01:33:36;;;;;;;5.00;4.50;;;;;;;5.85;77.73;99471.72;2619242;54;20030;-66
2021/10/13 01:36:11;;;;;;;6.32;4.63;;;;;;;5.90;77.89;99474.72;2619427;54;20119;-65
2021/10/13 01:38:48;;;;;;;4.97;4.45;;;;;;;5.91;77.67;99473.75;2620033;54;20023;-66
2021/10/13 01:41:19;;;;;;;4.75;4.28;;;;;;;5.85;77.59;99480.41;2619837;54;20046;-66
2021/10/13 01:43:54;;;;;;;5.15;4.25;;;;;;;5.76;77.31;99475.22;2619610;54;20031;-66
2021/10/13 01:46:26;;;;;;;5.38;4.00;;;;;;;5.71;77.43;99481.72;2620189;54;20121;-66
2021/10/13 01:48:59;;;;;;;8.32;3.60;;;;;;;5.59;77.34;99482.03;2620131;54;20166;-66
2021/10/13 01:51:30;;;;;;;4.57;3.70;;;;;;;5.54;77.69;99479.00;2620346;54;20038;-66
2021/10/13 01:54:03;;;;;;;4.20;3.80;;;;;;;5.49;77.90;99487.31;2619573;47;20038;-66
2021/10/13 01:56:34;;;;;;;4.85;3.42;;;;;;;5.46;77.77;99485.78;2620235;54;20030;-66
2021/10/13 01:59:09;;;;;;;3.90;3.50;;;;;;;5.44;78.06;99495.63;2620393;54;20046;-66
2021/10/13 02:01:40;;;;;;;6.10;3.67;;;;;;;5.40;77.74;99494.25;2620582;54;20038;-66
2021/10/13 02:04:12;;;;;;;3.70;3.40;;;;;;;5.42;77.68;99494.09;2620576;54;20034;-66
2021/10/13 02:06:44;;;;;;;4.35;3.58;;;;;;;5.36;78.22;99484.19;2619609;54;20042;-66
2021/10/13 02:09:16;;;;;;;5.45;4.13;;;;;;;5.30;77.73;99482.94;2620931;39;20436;-65
2021/10/13 02:11:48;;;;;;;4.38;3.88;;;;;;;5.31;77.96;99489.88;2620421;54;20180;-65
2021/10/13 02:14:23;;;;;;;4.70;4.05;;;;;;;5.40;78.34;99498.66;2620660;54;20055;-65
2021/10/13 02:16:55;;;;;;;5.35;4.25;;;;;;;5.36;77.53;99494.69;2619091;54;20053;-65
2021/10/13 02:19:28;;;;;;;4.45;4.05;;;;;;;5.32;77.54;99491.50;2618949;54;20030;-66
2021/10/13 02:21:59;;;;;;;5.88;3.97;;;;;;;5.35;77.65;99499.09;2619900;54;20045;-66
2021/10/13 02:24:33;;;;;;;4.85;4.35;;;;;;;5.24;77.53;99495.81;2620252;47;20059;-65
2021/10/13 02:27:07;;;;;;;4.95;4.03;;;;;;;5.18;78.16;99502.44;2620684;47;20118;-64
2021/10/13 02:29:40;;;;;;;5.32;4.13;;;;;;;5.23;78.40;99505.47;2620632;54;20035;-65
2021/10/13 02:32:11;;;;;;;9.27;4.53;;;;;;;5.19;78.43;99507.56;2620796;54;20034;-65
2021/10/13 02:34:41;;;;;;;9.90;5.53;;;;;;;5.18;78.90;99503.28;2620603;54;20045;-65
2021/10/13 02:37:11;;;;;;;21.92;6.07;;;;;;;5.13;79.10;99499.41;2621221;54;20038;-65
2021/10/13 02:39:41;;;;;;;17.55;6.47;;;;;;;5.06;79.18;99499.16;2621197;54;20047;-65
2021/10/13 02:42:11;;;;;;;12.30;5.20;;;;;;;5.05;79.59;99507.16;2621525;54;20026;-65
2021/10/13 02:44:43;;;;;;;12.23;5.10;;;;;;;5.09;80.15;99503.28;2621241;54;20054;-65
2021/10/13 02:47:17;;;;;;;40.45;6.53;;;;;;;5.11;79.58;99506.59;2621212;54;20030;-66
2021/10/13 02:49:55;;;;;;;177.45;13.98;;;;;;;5.08;79.63;99506.88;2620380;54;20054;-65
2021/10/13 02:52:30;;;;;;;18.65;5.82;;;;;;;5.07;79.90;99508.66;2621066;54;20035;-65
2021/10/13 02:55:03;;;;;;;23.92;6.53;;;;;;;5.15;79.99;99510.59;2621615;54;20577;-65
2021/10/13 02:57:37;;;;;;;45.70;6.68;;;;;;;5.12;79.53;99505.63;2620589;54;20030;-67
2021/10/13 03:00:12;;;;;;;45.28;8.35;;;;;;;4.85;79.63;99504.53;2623235;54;20030;-67
2021/10/13 03:02:51;;;;;;;30.75;6.78;;;;;;;4.72;79.78;99507.44;2622824;54;20034;-68
2021/10/13 03:05:25;;;;;;;16.48;5.32;;;;;;;4.79;80.51;99512.97;2622121;54;20038;-68
2021/10/13 03:07:58;;;;;;;18.80;6.13;;;;;;;4.91;80.92;99505.78;2622756;54;20029;-69
2021/10/13 03:10:28;;;;;;;25.63;7.30;;;;;;;4.92;80.93;99516.13;2622042;54;20038;-67
2021/10/13 03:13:01;;;;;;;19.60;6.60;;;;;;;4.99;80.88;99510.34;2622383;54;20039;-67
2021/10/13 03:15:34;;;;;;;18.00;7.43;;;;;;;5.12;81.28;99514.31;2623055;54;20070;-68
2021/10/13 03:18:05;;;;;;;11.35;6.82;;;;;;;5.15;81.08;99515.84;2622910;46;20050;-69
2021/10/13 03:20:34;;;;;;;25.23;6.90;;;;;;;5.14;80.17;99517.63;2623832;54;20039;-68
2021/10/13 03:23:05;;;;;;;51.55;7.75;;;;;;;5.03;80.06;99517.78;2623015;54;20081;-71
2021/10/13 03:25:35;;;;;;;31.65;7.50;;;;;;;4.96;80.47;99530.59;2622675;47;20023;-69
2021/10/13 03:28:06;;;;;;;24.38;7.28;;;;;;;4.89;80.44;99526.06;2620743;54;20043;-69
2021/10/13 03:30:39;;;;;;;27.42;8.25;;;;;;;4.87;80.49;99525.38;2620968;54;20037;-68
2021/10/13 03:33:08;;;;;;;19.20;8.18;;;;;;;4.86;80.75;99529.78;2620765;47;20057;-70
2021/10/13 03:35:38;;;;;;;12.13;7.70;;;;;;;4.94;81.08;99531.72;2621636;54;20026;-68
2021/10/13 03:38:08;;;;;;;34.35;16.58;;;;;;;5.02;80.50;99534.47;2621423;54;20086;-67
2021/10/13 03:40:38;;;;;;;28.38;10.35;;;;;;;4.99;80.28;99542.59;2621649;54;20041;-68
2021/10/13 03:43:11;;;;;;;23.85;10.63;;;;;;;4.92;80.62;99552.81;2621111;54;20565;-68
2021/10/13 03:45:43;;;;;;;20.10;8.65;;;;;;;4.91;80.75;99550.34;2621345;54;20035;-67
2021/10/13 03:48:13;;;;;;;56.85;9.85;;;;;;;4.82;80.47;99554.63;2621156;54;20050;-68
2021/10/13 03:50:43;;;;;;;85.53;9.90;;;;;;;4.63;80.50;99562.44;2622244;39;20461;-68
2021/10/13 03:53:12;;;;;;;89.75;10.50;;;;;;;4.63;80.99;99571.13;2620963;39;20442;-68
2021/10/13 03:55:42;;;;;;;15.10;7.30;;;;;;;4.64;80.84;99569.34;2620612;39;20430;-68
2021/10/13 03:58:11;;;;;;;25.52;7.82;;;;;;;4.61;80.68;99567.84;2620177;47;20026;-68
2021/10/13 04:00:44;;;;;;;56.22;9.65;;;;;;;4.59;80.84;99569.75;2620130;54;20030;-67
2021/10/13 04:03:14;;;;;;;18.73;9.18;;;;;;;4.56;80.69;99572.63;2620900;54;20113;-67
2021/10/13 04:05:43;;;;;;;26.23;8.40;;;;;;;4.59;80.97;99579.38;2619982;54;20126;-67
2021/10/13 04:08:13;;;;;;;43.42;9.05;;;;;;;4.64;80.86;99578.00;2620606;54;20038;-67
2021/10/13 04:10:43;;;;;;;23.38;8.63;;;;;;;4.64;81.31;99575.38;2620319;54;20033;-67
2021/10/13 04:13:12;;;;;;;37.00;10.35;;;;;;;4.79;81.35;99588.09;2619884;54;20030;-67
2021/10/13 04:15:44;;;;;;;30.27;9.82;;;;;;;4.88;80.87;99589.91;2619945;54;20085;-67
2021/10/13 04:18:14;;;;;;;15.82;8.50;;;;;;;4.83;80.77;99589.50;2620176;54;20034;-67
2021/10/13 04:20:43;;;;;;;19.63;8.65;;;;;;;4.88;81.17;99597.75;2619687;47;20174;-68
2021/10/13 04:23:17;;;;;;;173.02;16.35;;;;;;;4.96;80.89;99601.34;2620722;54;20026;-68
2021/10/13 04:25:47;;;;;;;131.50;14.00;;;;;;;4.92;80.58;99594.72;2620717;54;20027;-69
2021/10/13 04:28:17;;;;;;;40.30;9.73;;;;;;;4.78;80.16;99602.19;2620204;54;20077;-68
2021/10/13 04:30:52;;;;;;;32.27;10.60;;;;;;;4.69;80.22;99603.78;2620949;39;20665;-68
2021/10/13 04:33:22;;;;;;;82.43;11.77;;;;;;;4.67;80.14;99605.72;2619850;47;20530;-68
2021/10/13 04:35:51;;;;;;;76.55;11.73;;;;;;;4.58;80.93;99604.75;2619922;47;20035;-68
2021/10/13 04:38:21;;;;;;;92.55;12.18;;;;;;;4.50;80.75;99620.31;2619980;54;20552;-68
2021/10/13 04:40:51;;;;;;;30.48;9.40;;;;;;;4.57;81.34;99615.34;2620089;54;20137;-68
2021/10/13 04:43:20;;;;;;;23.08;10.10;;;;;;;4.63;80.82;99617.44;2621275;54;20063;-67
2021/10/13 04:45:52;;;;;;;34.22;9.80;;;;;;;4.65;80.74;99615.50;2620630;54;20022;-68
2021/10/13 04:48:22;;;;;;;64.60;11.68;;;;;;;4.61;81.02;99621.97;2621529;39;20442;-68
2021/10/13 04:50:51;;;;;;;13.90;8.60;;;;;;;4.56;80.89;99613.69;2621484;54;20034;-68
2021/10/13 04:53:21;;;;;;;20.85;9.68;;;;;;;4.60;81.34;99608.06;2621569;54;20039;-68
2021/10/13 04:55:50;;;;;;;19.23;8.05;;;;;;;4.59;81.19;99611.63;2620262;47;20038;-68
2021/10/13 04:58:20;;;;;;;18.15;8.43;;;;;;;4.70;81.50;99613.31;2620505;54;20030;-68
2021/10/13 05:00:49;;;;;;;36.45;7.97;;;;;;;4.76;81.08;99607.53;2619770;54;20593;-68
2021/10/13 05:03:21;;;;;;;54.75;11.68;;;;;;;4.65;80.54;99613.75;2619821;54;20038;-67
2021/10/13 05:05:51;;;;;;;13.40;7.95;;;;;;;4.65;80.91;99610.25;2620234;54;20085;-67
2021/10/13 05:08:20;;;;;;;35.53;8.25;;;;;;;4.68;80.91;99610.00;2619711;54;20034;-68
2021/10/13 05:10:50;;;;;;;28.95;8.63;;;;;;;4.74;81.05;99614.72;2620896;54;20087;-68
2021/10/13 05:13:20;;;;;;;14.10;8.48;;;;;;;4.86;81.18;99616.25;2622191;54;20034;-68
2021/10/13 05:15:50;;;;;;;20.88;8.65;;;;;;;4.94;80.38;99624.25;2622238;54;20042;-68
2021/10/13 05:18:22;;;;;;;18.73;8.93;;;;;;;4.67;80.13;99626.69;2622557;54;20039;-67
2021/10/13 05:20:51;;;;;;;48.20;9.82;;;;;;;4.63;80.56;99622.69;2623028;54;20086;-68
2021/10/13 05:23:21;;;;;;;30.33;9.93;;;;;;;4.66;81.02;99635.50;2622005;54;20141;-69
2021/10/13 05:25:50;;;;;;;29.25;9.40;;;;;;;4.68;81.23;99630.94;2621981;54;20030;-69
2021/10/13 05:28:20;;;;;;;38.17;9.07;;;;;;;4.68;80.75;99637.03;2622049;54;20085;-69
2021/10/13 05:30:50;;;;;;;14.32;8.85;;;;;;;4.71;80.99;99643.78;2622561;54;20054;-69
2021/10/13 05:33:22;;;;;;;31.13;9.63;;;;;;;4.83;81.29;99639.28;2623214;54;20042;-66
2021/10/13 05:35:52;;;;;;;32.65;10.55;;;;;;;4.86;80.67;99649.47;2622124;54;20552;-68
2021/10/13 05:38:21;;;;;;;23.75;8.88;;;;;;;4.83;80.37;99645.34;2622932;54;20803;-68
2021/10/13 05:40:51;;;;;;;67.18;9.77;;;;;;;4.68;79.36;99652.72;2623412;54;20546;-67
2021/10/13 05:43:21;;;;;;;70.93;9.52;;;;;;;4.43;79.39;99651.41;2623722;54;20549;-68
2021/10/13 05:45:50;;;;;;;25.00;8.65;;;;;;;4.39;80.37;99647.41;2623745;54;20034;-67
2021/10/13 05:48:22;;;;;;;28.25;9.55;;;;;;;4.55;80.98;99653.94;2622043;54;20093;-67
2021/10/13 05:50:52;;;;;;;17.85;9.35;;;;;;;4.62;80.47;99661.13;2620539;47;20086;-67
2021/10/13 05:53:22;;;;;;;20.35;9.73;;;;;;;4.65;80.44;99657.41;2620316;54;20031;-66
2021/10/13 05:55:52;;;;;;;15.52;8.85;;;;;;;4.70;80.13;99663.09;2621174;54;20046;-66
2021/10/13 05:58:24;;;;;;;16.10;9.63;;;;;;;4.80;79.99;99656.06;2623000;54;20030;-67
2021/10/13 06:00:54;;;;;;;12.18;8.82;;;;;;;4.81;79.64;99659.50;2622938;47;20661;-66
2021/10/13 06:03:27;;;;;;;22.30;9.52;;;;;;;4.84;79.74;99656.63;2623630;54;20038;-66
2021/10/13 06:05:57;;;;;;;18.08;9.57;;;;;;;4.91;79.40;99665.63;2623511;54;20035;-66
2021/10/13 06:08:26;;;;;;;16.52;9.73;;;;;;;4.87;79.45;99672.91;2622278;50;20030;-66
2021/10/13 06:10:55;;;;;;;17.48;9.70;;;;;;;4.91;78.97;99687.41;2623612;54;20038;-66
2021/10/13 06:13:25;;;;;;;14.13;8.88;;;;;;;4.96;79.43;99676.50;2623190;47;20046;-66
2021/10/13 06:15:54;;;;;;;15.27;8.88;;;;;;;5.00;79.04;99692.81;2623244;54;20035;-68
2021/10/13 06:18:27;;;;;;;18.73;10.50;;;;;;;5.08;78.88;99690.34;2623085;54;20030;-66
2021/10/13 06:20:56;;;;;;;16.33;9.30;;;;;;;5.14;78.80;99690.63;2623575;54;20070;-67
2021/10/13 06:23:26;;;;;;;28.08;9.32;;;;;;;5.15;78.80;99696.69;2623283;54;20026;-68
2021/10/13 06:25:55;;;;;;;13.05;8.30;;;;;;;5.20;78.97;99697.09;2623583;54;20045;-68
2021/10/13 06:28:25;;;;;;;13.82;9.00;;;;;;;5.33;78.61;99691.59;2623413;54;20029;-70
2021/10/13 06:30:54;;;;;;;15.45;9.23;;;;;;;5.40;78.57;99701.41;2624159;39;20434;-68
2021/10/13 06:33:26;;;;;;;15.25;9.32;;;;;;;5.44;78.59;99696.72;2623427;54;20023;-68
2021/10/13 06:35:56;;;;;;;14.50;9.27;;;;;;;5.46;78.21;99706.06;2622694;39;20457;-68
2021/10/13 06:38:26;;;;;;;12.55;8.68;;;;;;;5.51;78.10;99703.06;2622841;54;20035;-69
2021/10/13 06:40:55;;;;;;;15.93;9.35;;;;;;;5.52;78.38;99707.34;2622409;39;20188;-68
2021/10/13 06:43:25;;;;;;;15.10;8.85;;;;;;;5.54;78.11;99712.44;2620940;47;20129;-68
2021/10/13 06:45:54;;;;;;;15.50;8.82;;;;;;;5.53;77.87;99713.41;2621234;54;20038;-68
2021/10/13 06:48:26;;;;;;;16.55;9.80;;;;;;;5.63;78.01;99722.09;2621287;54;20549;-66
2021/10/13 06:50:56;;;;;;;19.50;9.35;;;;;;;5.62;77.38;99721.28;2621618;54;20038;-66
2021/10/13 06:53:25;;;;;;;14.60;8.93;;;;;;;5.67;77.73;99716.47;2622647;39;20377;-67
2021/10/13 06:55:55;;;;;;;12.18;8.57;;;;;;;5.80;77.69;99721.41;2620989;54;20114;-67
2021/10/13 06:58:25;;;;;;;12.00;8.85;;;;;;;5.87;76.72;99717.25;2621217;54;20073;-69
2021/10/13 07:00:54;;;;;;;15.98;10.07;;;;;;;5.76;76.82;99722.66;2621726;54;20046;-67
2021/10/13 07:03:26;;;;;;;14.43;9.23;;;;;;;5.82;77.53;99724.72;2621985;47;20035;-66
2021/10/13 07:05:56;;;;;;;14.93;9.23;;;;;;;5.95;77.46;99725.28;2622688;47;20081;-69
2021/10/13 07:08:25;;;;;;;15.43;9.40;;;;;;;6.01;77.23;99715.22;2622932;54;20026;-68
2021/10/13 07:10:55;;;;;;;13.90;9.05;;;;;;;6.04;77.04;99718.38;2622741;54;20034;-67
2021/10/13 07:13:24;;;;;;;16.60;9.75;;;;;;;6.11;76.82;99727.31;2623413;39;20395;-66
2021/10/13 07:15:54;;;;;;;13.77;9.40;;;;;;;6.19;77.11;99729.25;2622608;54;20027;-67
2021/10/13 07:18:26;;;;;;;15.85;8.88;;;;;;;6.31;77.01;99736.00;2622410;54;20122;-67
2021/10/13 07:20:56;;;;;;;12.52;8.88;;;;;;;6.37;76.51;99730.19;2621972;54;20069;-66
2021/10/13 07:23:25;;;;;;;13.70;9.45;;;;;;;6.48;76.50;99731.78;2622511;54;20031;-67
2021/10/13 07:25:55;;;;;;;17.00;9.77;;;;;;;6.58;76.28;99735.22;2621768;54;20026;-69
2021/10/13 07:28:25;;;;;;;13.05;8.98;;;;;;;6.62;75.88;99739.22;2621103;47;20057;-67
2021/10/13 07:30:55;;;;;;;15.52;10.35;;;;;;;6.69;75.79;99737.69;2621089;39;20458;-67
2021/10/13 07:33:27;;;;;;;15.43;9.50;;;;;;;6.70;75.21;99751.63;2620681;54;20030;-67
2021/10/13 07:35:56;;;;;;;20.77;10.65;;;;;;;6.72;75.42;99752.31;2621046;54;20034;-67
2021/10/13 07:38:26;;;;;;;18.83;11.15;;;;;;;6.75;75.77;99754.66;2622590;47;20586;-67
2021/10/13 07:40:56;;;;;;;18.27;10.50;;;;;;;6.85;75.57;99763.31;2623167;54;20034;-67
2021/10/13 07:43:26;;;;;;;14.45;9.57;;;;;;;6.90;75.20;99768.16;2623110;47;20038;-67
2021/10/13 07:45:56;;;;;;;14.25;9.60;;;;;;;7.00;75.42;99758.41;2622801;54;20590;-66
2021/10/13 07:48:28;;;;;;;14.88;9.18;;;;;;;7.06;75.36;99759.59;2623787;54;20558;-66
2021/10/13 07:50:58;;;;;;;12.35;8.65;;;;;;;7.09;74.72;99760.16;2623730;54;20586;-66
2021/10/13 07:53:27;;;;;;;8.77;7.40;;;;;;;7.12;74.97;99767.75;2622924;54;20047;-68
2021/10/13 07:55:57;;;;;;;13.07;8.73;;;;;;;7.14;74.72;99768.44;2621111;54;20038;-68
2021/10/13 07:58:26;;;;;;;9.73;7.82;;;;;;;7.16;74.64;99769.13;2622253;54;20035;-67
2021/10/13 08:00:56;;;;;;;11.68;8.05;;;;;;;7.27;74.98;99768.09;2623664;31;20488;-67
2021/10/13 08:03:28;;;;;;;14.05;8.13;;;;;;;7.36;74.61;99766.38;2622780;47;20023;-67
2021/10/13 08:05:57;;;;;;;13.00;8.52;;;;;;;7.41;74.72;99772.84;2622894;54;20741;-67
2021/10/13 08:08:27;;;;;;;13.07;8.77;;;;;;;7.49;74.74;99769.47;2624110;54;20065;-68
2021/10/13 08:10:56;;;;;;;10.18;7.68;;;;;;;7.56;74.40;99769.72;2623784;54;20034;-66
2021/10/13 08:13:26;;;;;;;11.57;7.40;;;;;;;7.64;74.30;99773.25;2623451;54;20042;-66
2021/10/13 08:15:55;;;;;;;9.60;6.65;;;;;;;7.75;74.35;99774.81;2622573;54;20066;-67
2021/10/13 08:18:27;;;;;;;10.88;7.82;;;;;;;7.86;74.29;99773.75;2620778;39;20534;-67
2021/10/13 08:20:57;;;;;;;13.25;8.23;;;;;;;7.97;74.32;99780.59;2620843;54;20026;-67
2021/10/13 08:23:27;;;;;;;11.93;7.55;;;;;;;7.94;74.17;99779.91;2622207;54;20090;-67
2021/10/13 08:25:58;;;;;;;8.85;6.63;;;;;;;8.03;74.05;99788.72;2623256;54;20098;-67
2021/10/13 08:28:28;;;;;;;8.98;7.00;;;;;;;8.04;73.97;99790.38;2623164;54;20034;-67
2021/10/13 08:30:58;;;;;;;13.75;7.20;;;;;;;8.15;74.15;99790.13;2623697;54;20035;-67
2021/10/13 08:33:31;;;;;;;10.45;7.45;;;;;;;8.27;74.14;99782.81;2623762;54;20074;-66
2021/10/13 08:36:00;;;;;;;10.35;6.95;;;;;;;8.36;74.32;99781.88;2622793;47;20077;-66
2021/10/13 08:38:30;;;;;;;10.50;6.43;;;;;;;8.54;74.50;99781.88;2622788;48;20530;-67
2021/10/13 08:41:00;;;;;;;8.98;6.82;;;;;;;8.67;74.10;99771.72;2623202;54;20048;-66
2021/10/13 08:43:29;;;;;;;11.20;7.60;;;;;;;8.76;73.64;99780.50;2620594;54;20115;-67
2021/10/13 08:45:59;;;;;;;9.63;7.70;;;;;;;8.90;73.37;99782.56;2620368;31;20490;-68
2021/10/13 08:48:31;;;;;;;9.68;6.60;;;;;;;8.95;72.97;99779.44;2620823;54;20029;-67
2021/10/13 08:51:00;;;;;;;9.70;6.95;;;;;;;8.93;73.12;99782.22;2622604;54;20031;-69
2021/10/13 08:53:30;;;;;;;9.20;7.15;;;;;;;8.93;72.59;99784.03;2622529;54;20553;-68
2021/10/13 08:56:00;;;;;;;12.02;6.75;;;;;;;8.98;73.30;99787.06;2622945;54;20098;-66
2021/10/13 08:58:31;;;;;;;12.15;6.57;;;;;;;8.90;72.78;99785.19;2622862;54;20034;-67
2021/10/13 09:01:13;;;;;;;12.25;7.85;;;;;;;9.00;73.37;99781.59;2623562;54;20022;-67
2021/10/13 09:03:48;;;;;;;11.10;7.57;;;;;;;9.11;73.50;99782.16;2623645;54;20041;-67
2021/10/13 09:06:19;;;;;;;;;;;;;;;9.03;73.28;99778.66;2623701;54;20042;-68
2021/10/13 09:09:05;;;;;;;11.20;7.40;;;;;;;9.12;73.33;99785.63;2625204;31;20414;-68
2021/10/13 09:11:42;;;;;;;72.50;66.20;;;;;;;9.19;73.75;99786.63;2624105;39;20403;-68
2021/10/13 09:14:15;;;;;;;13.23;10.45;;;;;;;9.29;73.90;99791.78;2623316;54;20521;-67
2021/10/13 09:16:50;;;;;;;17.00;10.02;;;;;;;9.38;73.13;99802.19;2623408;54;20026;-67
2021/10/13 09:19:24;;;;;;;15.93;10.95;;;;;;;9.47;73.27;99800.41;2624510;54;20038;-68
2021/10/13 09:21:56;;;;;;;11.52;8.70;;;;;;;9.53;73.81;99802.41;2624594;54;20026;-68
2021/10/13 09:24:27;;;;;;;15.95;8.75;;;;;;;9.64;73.91;99798.63;2623976;54;20030;-68
2021/10/13 09:26:59;;;;;;;14.10;10.05;;;;;;;9.75;73.63;99808.88;2624574;54;20030;-68
2021/10/13 09:29:29;;;;;;;14.80;9.13;;;;;;;9.84;73.89;99802.63;2624145;54;20054;-68
2021/10/13 09:32:00;;;;;;;16.25;9.20;;;;;;;9.85;72.85;99801.63;2624053;54;20038;-69
2021/10/13 09:34:32;;;;;;;14.20;8.43;;;;;;;9.88;72.58;99797.84;2623715;54;20046;-68
2021/10/13 09:37:02;;;;;;;10.13;8.57;;;;;;;9.94;72.45;99810.38;2624193;54;20063;-68
2021/10/13 09:39:32;;;;;;;14.25;9.02;;;;;;;10.10;72.08;99810.41;2624001;54;20039;-68
2021/10/13 09:42:05;;;;;;;15.75;9.05;;;;;;;10.23;71.65;99809.91;2623757;54;20054;-68
2021/10/13 09:44:36;;;;;;;15.63;8.85;;;;;;;10.22;71.94;99805.63;2621706;54;20134;-69
2021/10/13 09:47:08;;;;;;;15.27;9.32;;;;;;;10.31;72.37;99807.28;2624899;39;20430;-68
2021/10/13 09:49:42;;;;;;;13.00;8.52;;;;;;;10.36;71.73;99804.13;2624143;54;20031;-68
2021/10/13 09:52:15;;;;;;;11.10;8.10;;;;;;;10.32;71.79;99805.47;2624355;54;20031;-70
2021/10/13 09:54:47;;;;;;;8.20;6.90;;;;;;;10.31;71.70;99798.53;2624021;54;20026;-66
2021/10/13 09:57:28;;;;;;;12.23;8.00;;;;;;;10.44;71.46;99801.47;2624459;39;20439;-67
2021/10/13 10:00:11;;;;;;;12.20;7.82;;;;;;;10.50;71.32;99800.00;2624027;54;20031;-66
2021/10/13 10:02:43;;;;;;;14.80;8.30;;;;;;;10.46;70.92;99801.34;2623608;54;20030;-68
2021/10/13 10:05:17;;;;;;;10.98;7.65;;;;;;;10.34;70.47;99799.03;2624130;54;20033;-67
2021/10/13 10:08:02;;;;;;;15.98;8.27;;;;;;;10.34;70.79;99801.66;2624406;54;20082;-67
2021/10/13 10:10:32;;;;;;;16.80;8.05;;;;;;;10.38;71.07;99804.81;2622999;47;20027;-68
2021/10/13 10:13:07;;;;;;;9.80;8.05;;;;;;;10.53;70.55;99797.84;2623401;39;20465;-67
2021/10/13 10:15:40;;;;;;;11.88;7.53;;;;;;;10.65;70.17;99806.25;2623797;54;20027;-67
2021/10/13 10:18:26;;;;;;;11.95;7.47;;;;;;;10.62;70.28;99802.13;2623810;54;20058;-67
2021/10/13 10:20:59;;;;;;;11.45;7.13;;;;;;;10.60;70.75;99808.56;2623668;54;20057;-68
2021/10/13 10:23:33;;;;;;;9.18;6.47;;;;;;;10.70;69.96;99811.88;2623085;54;20027;-69
2021/10/13 10:26:24;;;;;;;10.77;7.30;;;;;;;10.70;70.27;99808.41;2623488;54;20027;-68
2021/10/13 10:28:58;;;;;;;11.10;6.97;;;;;;;10.80;70.44;99809.03;2623831;54;20058;-67
2021/10/13 10:31:36;;;;;;;12.98;7.53;;;;;;;10.80;70.49;99809.84;2623508;54;20030;-68
2021/10/13 10:34:28;;;;;;;13.73;7.43;;;;;;;10.89;70.26;99811.47;2624388;39;20670;-67
2021/10/13 10:37:17;;;;;;;11.93;6.55;;;;;;;10.98;70.37;99798.22;2624273;54;20030;-68
2021/10/13 10:40:06;;;;;;;7.40;5.95;;;;;;;11.10;69.83;99804.78;2624349;54;20086;-67
2021/10/13 10:42:57;;;;;;;10.07;6.53;;;;;;;11.30;69.15;99799.91;2623660;54;20603;-67
2021/10/13 10:45:29;;;;;;;8.45;6.20;;;;;;;11.36;69.53;99793.94;2624120;54;20030;-68
2021/10/13 10:48:27;;;;;;;9.82;6.40;;;;;;;11.44;69.11;99793.91;2623859;54;20034;-68
2021/10/13 10:51:01;;;;;;;14.55;7.68;;;;;;;11.55;68.64;99792.66;2624242;54;20046;-68
2021/10/13 10:53:36;;;;;;;;;;;;;;;11.57;68.49;99788.03;2622461;54;20042;-67
2021/10/13 10:56:29;;;;;;;11.18;6.78;;;;;;;11.65;68.51;99788.78;2622588;54;20513;-69
2021/10/13 10:59:09;;;;;;;11.15;6.80;;;;;;;11.71;67.63;99797.84;2623880;54;20026;-67
2021/10/13 11:01:39;;;;;;;10.93;6.10;;;;;;;11.76;67.41;99784.09;2624596;39;20693;-68
2021/10/13 11:04:11;;;;;;;6.63;5.78;;;;;;;11.86;67.19;99784.72;2623408;47;20126;-66
2021/10/13 11:06:46;;;;;;;9.45;5.68;;;;;;;12.01;66.79;99790.91;2623579;47;20030;-68
2021/10/13 11:09:18;;;;;;;10.98;5.55;;;;;;;12.17;66.30;99782.00;2623844;54;20558;-68
2021/10/13 11:11:49;;;;;;;9.77;6.00;;;;;;;12.28;66.07;99783.38;2624474;54;20153;-67
2021/10/13 11:14:23;;;;;;;9.50;5.88;;;;;;;12.26;65.39;99785.38;2624038;54;20045;-68
2021/10/13 11:16:57;;;;;;;10.85;6.45;;;;;;;12.24;65.16;99790.03;2623703;54;20561;-68
2021/10/13 11:19:30;;;;;;;10.27;5.90;;;;;;;12.20;64.14;99788.75;2623712;54;20042;-68
2021/10/13 11:22:06;;;;;;;6.72;4.50;;;;;;;12.05;63.82;99794.84;2624315;54;20149;-68
2021/10/13 11:24:40;;;;;;;6.80;4.28;;;;;;;12.21;63.62;99782.47;2623146;47;20042;-67
2021/10/13 11:27:10;;;;;;;6.85;3.53;;;;;;;12.53;63.21;99781.31;2623572;39;20439;-67
2021/10/13 11:29:42;;;;;;;5.53;3.97;;;;;;;12.84;62.52;99781.97;2623118;54;20145;-68
2021/10/13 11:32:15;;;;;;;5.50;3.83;;;;;;;13.10;61.15;99778.00;2623599;54;20050;-68
2021/10/13 11:34:46;;;;;;;6.40;3.92;;;;;;;13.07;60.57;99784.53;2622863;54;20034;-69
2021/10/13 11:37:25;;;;;;;6.63;3.63;;;;;;;12.87;60.04;99783.44;2623272;54;20050;-67
2021/10/13 11:39:57;;;;;;;7.07;3.45;;;;;;;12.84;59.16;99784.63;2623552;54;20642;-69
2021/10/13 11:42:28;;;;;;;4.25;2.90;;;;;;;12.74;58.00;99780.63;2622632;39;20418;-68
2021/10/13 11:44:58;;;;;;;6.10;3.22;;;;;;;12.84;58.00;99781.16;2620572;54;20039;-69
2021/10/13 11:47:32;;;;;;;7.85;4.35;;;;;;;12.92;58.67;99778.41;2620111;54;20034;-68
2021/10/13 11:50:03;;;;;;;6.00;4.18;;;;;;;12.87;58.64;99771.00;2620333;54;20534;-68
2021/10/13 11:52:33;;;;;;;8.05;3.75;;;;;;;12.85;59.28;99769.53;2619180;54;20114;-68
2021/10/13 11:55:08;;;;;;;3.75;3.38;;;;;;;12.81;57.31;99771.72;2619649;54;20174;-67
2021/10/13 11:57:40;;;;;;;5.32;3.22;;;;;;;12.87;57.75;99771.00;2619841;39;20495;-67